Latest Weather Observations for Ceduna

IDS60801

Issued at 11:02 pm CDT Wednesday 4 March 2015 (issued every 30 minutes, with the page automatically refreshed every 10 minutes)

About weather observations | Map of weather stations | Latest weather observations for SA | Other Formats
Station Details ID: 018012 Name: CEDUNA AMO Lat: -32.13 Lon: 133.70 Height: 15.3 m
Data from the previous 72 hours. | See also: Recent months at Ceduna
Date/Time
CDT
Temp
°C
App
Temp
°C
Dew
Point
Rel
Hum
%
Delta-T
°C
Wind Press
QNH
hPa
Press
MSL
hPa
Rain
since 9 am
mm
Dir
 
Spd
km/h
Gust
km/h
Spd
kts
Gust
kts
04/11:00pm 18.8 16.1 13.6 72 3.0 SSW 20 28 11 15 1023.0 1023.0 0.0
04/10:30pm 18.3 15.4 13.0 71 3.0 SSW 20 26 11 14 1022.9 1022.9 0.0
04/10:00pm 18.5 15.6 12.9 70 3.1 S 20 26 11 14 1022.4 1022.4 0.0
04/09:30pm 18.6 15.7 13.0 70 3.1 SSW 20 28 11 15 1022.2 1022.2 0.0
04/09:00pm 18.7 16.0 13.6 72 2.9 SSW 20 28 11 15 1022.1 1022.1 0.0
04/08:30pm 18.9 16.2 12.9 68 3.4 SSW 19 24 10 13 1021.7 1021.7 0.0
04/08:00pm 18.7 15.7 12.7 68 3.4 SSW 20 26 11 14 1021.6 1021.6 0.0
04/07:30pm 19.0 16.0 12.7 67 3.5 SSW 20 28 11 15 1021.4 1021.4 0.0
04/07:00pm 19.6 16.6 12.6 64 3.9 SSW 20 28 11 15 1021.3 1021.3 0.0
04/06:30pm 19.6 16.6 12.4 63 4.0 SSW 20 28 11 15 1021.1 1021.1 0.0
04/06:00pm 20.1 15.4 12.1 60 4.5 SSW 28 35 15 19 1020.7 1020.7 0.0
04/05:30pm 19.8 15.0 11.8 60 4.4 SSW 28 35 15 19 1020.5 1020.5 0.0
04/05:00pm 20.9 17.0 12.1 57 4.9 S 24 37 13 20 1020.5 1020.5 0.0
04/04:30pm 21.2 16.6 12.3 57 5.0 SSW 28 37 15 20 1020.7 1020.7 0.0
04/04:00pm 21.0 16.4 12.4 58 4.8 SSW 28 39 15 21 1020.7 1020.7 0.0
04/03:30pm 21.8 16.7 11.8 53 5.6 S 30 39 16 21 1020.6 1020.6 0.0
04/03:00pm 21.2 15.9 12.6 58 4.9 SSW 32 41 17 22 1020.6 1020.6 0.0
04/02:30pm 20.9 16.4 12.6 59 4.7 SSW 28 35 15 19 1020.7 1020.7 0.0
04/02:00pm 21.4 17.7 12.8 58 4.9 SSW 24 33 13 18 1020.9 1020.9 0.0
04/01:30pm 20.7 17.5 13.2 62 4.3 S 22 30 12 16 1021.0 1021.0 0.0
04/01:00pm 21.3 18.1 13.0 59 4.7 S 22 30 12 16 1021.1 1021.1 0.0
04/12:30pm 21.5 18.0 13.4 60 4.6 S 24 30 13 16 1021.4 1021.4 0.0
04/12:00pm 20.2 16.0 13.4 65 3.9 S 28 37 15 20 1021.6 1021.6 0.0
04/11:30am 19.8 15.6 13.5 67 3.6 S 28 35 15 19 1021.2 1021.2 0.0
04/11:00am 19.7 16.3 13.6 68 3.5 S 24 30 13 16 1021.5 1021.5 0.0
04/10:30am 19.2 16.0 14.2 73 2.9 SSE 24 32 13 17 1021.1 1021.1 0.0
04/10:00am 18.7 15.3 13.8 73 2.8 SSE 24 30 13 16 1021.0 1021.0 0.0
04/09:30am 18.3 15.9 14.4 78 2.2 SE 20 28 11 15 1021.0 1021.0 0.0
04/09:00am 17.9 14.8 14.4 80 2.0 SSE 24 32 13 17 1020.6 1020.6 0.6
04/08:30am 17.8 15.8 14.9 83 1.7 SSE 19 28 10 15 1020.3 1020.3 0.6
04/08:00am 17.4 15.2 14.9 85 1.4 SSE 20 26 11 14 1019.8 1019.8 0.6
04/07:30am 16.7 14.8 14.3 86 1.4 SSE 17 20 9 11 1019.6 1019.6 0.6
04/07:00am 17.2 15.1 14.7 85 1.4 SSE 19 26 10 14 1019.6 1019.6 0.6
04/06:30am 17.2 15.1 14.7 85 1.4 SSE 19 22 10 12 1019.4 1019.4 0.6
04/06:00am 17.3 15.6 14.8 85 1.4 SSE 17 20 9 11 1019.4 1019.4 0.6
04/05:30am 17.2 15.1 14.8 86 1.4 SSE 19 24 10 13 1019.0 1019.0 0.6
04/05:00am 17.1 14.8 14.6 85 1.4 SSE 20 30 11 16 1018.9 1018.9 0.6
04/04:30am 17.3 14.6 14.6 84 1.6 SSE 22 28 12 15 1019.2 1019.2 0.6
04/04:00am 16.9 14.5 14.4 85 1.4 SSE 20 26 11 14 1018.8 1018.8 0.6
04/03:30am 16.9 14.6 14.7 87 1.3 SSE 20 26 11 14 1018.9 1018.9 0.6
04/03:00am 17.7 14.7 13.8 78 2.2 S 22 28 12 15 1019.7 1019.7 0.4
04/02:30am 17.7 14.8 14.0 79 2.1 SSE 22 32 12 17 1019.7 1019.7 0.4
04/02:00am 17.6 15.2 14.3 81 1.9 SSE 20 28 11 15 1019.9 1019.9 0.4
04/01:30am 17.6 14.6 14.7 83 1.7 SSE 24 30 13 16 1019.7 1019.7 0.4
04/01:00am 17.7 14.7 14.8 83 1.7 SSE 24 35 13 19 1020.0 1020.0 0.4
04/12:30am 17.6 14.6 14.7 83 1.7 SSE 24 32 13 17 1020.1 1020.1 0.4
04/12:00am 17.6 15.3 14.7 83 1.7 SSE 20 28 11 15 1020.3 1020.3 0.4
 
Date/Time
CDT
Temp
°C
App
Temp
°C
Dew
Point
Rel
Hum
%
Delta-T
°C
Wind Press
QNH
hPa
Press
MSL
hPa
Rain
since 9 am
mm
Dir
 
Spd
km/h
Gust
km/h
Spd
kts
Gust
kts
03/11:30pm 17.5 15.4 14.8 84 1.6 SSE 19 26 10 14 1020.2 1020.2 0.4
03/11:00pm 17.4 15.2 14.9 85 1.4 SSE 20 26 11 14 1020.4 1020.4 0.4
03/10:30pm 17.4 14.4 14.9 85 1.4 S 24 32 13 17 1020.6 1020.6 0.4
03/10:00pm 17.5 14.5 14.8 84 1.6 SSE 24 32 13 17 1019.9 1019.9 0.2
03/09:30pm 17.9 15.2 14.6 81 1.9 SSE 22 30 12 16 1019.9 1019.9 0.0
03/09:00pm 18.1 14.6 14.4 79 2.1 S 26 33 14 18 1019.8 1019.8 0.0
03/08:30pm 18.1 14.4 14.0 77 2.3 S 26 35 14 19 1019.4 1019.4 0.0
03/08:00pm 18.3 14.6 14.0 76 2.5 S 26 33 14 18 1018.5 1018.5 0.0
03/07:30pm 18.5 14.3 13.6 73 2.8 S 28 35 15 19 1018.0 1018.0 0.0
03/07:00pm 18.3 13.9 14.2 77 2.4 S 30 35 16 19 1017.7 1017.6 0.0
03/06:30pm 18.6 14.0 13.5 72 2.9 S 30 39 16 21 1017.7 1017.6 0.0
03/06:00pm 18.9 14.3 13.5 71 3.1 S 30 41 16 22 1017.8 1017.7 0.0
03/05:30pm 19.0 14.2 14.1 73 2.8 S 32 39 17 21 1017.4 1017.3 0.0
03/05:00pm 19.1 15.1 14.1 73 2.9 S 28 37 15 20 1017.5 1017.4 0.0
03/04:30pm 19.0 14.8 14.7 76 2.5 S 30 39 16 21 1017.2 1017.1 0.0
03/04:00pm 19.9 15.2 14.3 70 3.2 S 32 37 17 20 1017.6 1017.5 0.0
03/03:30pm 20.4 16.1 14.5 69 3.4 S 30 39 16 21 1017.8 1017.7 0.0
03/03:00pm 20.5 16.7 14.8 70 3.3 S 28 35 15 19 1017.7 1017.6 0.0
03/02:30pm 21.1 17.4 15.0 68 3.6 S 28 37 15 20 1017.7 1017.6 0.0
03/02:00pm 21.0 17.2 14.6 67 3.7 S 28 33 15 18 1018.0 1018.0 0.0
03/01:30pm 20.4 16.4 15.2 72 3.1 S 30 37 16 20 1018.2 1018.2 0.0
03/01:00pm 21.3 18.1 15.4 69 3.5 S 26 33 14 18 1018.4 1018.4 0.0
03/12:30pm 20.7 17.1 15.3 71 3.2 SSE 28 33 15 18 1018.6 1018.6 0.0
03/12:00pm 19.8 15.8 15.2 75 2.7 S 30 37 16 20 1019.0 1019.0 0.0
03/11:30am 19.7 16.6 15.6 77 2.4 S 26 32 14 17 1019.3 1019.3 0.0
03/11:00am 18.9 16.0 15.2 79 2.2 SSE 24 30 13 16 1019.5 1019.5 0.0
03/10:30am 18.7 15.9 15.4 81 1.9 SSE 24 32 13 17 1019.1 1019.1 0.0
03/10:00am 18.8 16.1 15.5 81 1.9 SSE 24 33 13 18 1018.8 1018.8 0.0
03/09:30am 18.2 16.1 15.1 82 1.8 SSE 20 26 11 14 1018.9 1018.9 0.0
03/09:00am 18.1 16.2 15.2 83 1.7 SSE 19 24 10 13 1018.6 1018.6 0.6
03/08:30am 18.1 16.5 15.0 82 1.8 SSE 17 22 9 12 1018.1 1018.1 0.6
03/08:00am 17.7 16.5 15.0 84 1.6 SSE 15 17 8 9 1017.5 1017.4 0.6
03/07:30am 17.6 17.5 14.9 84 1.6 SSE 9 11 5 6 1017.5 1017.4 0.6
03/07:00am 17.6 17.4 14.7 83 1.7 SSE 9 13 5 7 1017.2 1017.1 0.6
03/06:30am 17.5 17.4 15.0 85 1.4 SSE 9 13 5 7 1017.2 1017.1 0.6
03/06:00am 17.5 17.5 15.1 86 1.4 SE 9 13 5 7 1017.0 1016.9 0.6
03/05:30am 17.4 17.1 15.4 88 1.2 SE 11 13 6 7 1016.4 1016.3 0.6
03/05:00am 17.6 19.3 15.2 86 1.4 CALM 0 0 0 0 1017.1 1017.0 0.6
03/04:30am 17.8 17.9 15.4 86 1.4 SSE 9 11 5 6 1016.8 1016.7 0.6
03/04:00am 17.6 16.8 15.2 86 1.4 SE 13 15 7 8 1015.9 1015.8 0.6
03/03:30am 17.3 16.7 14.6 84 1.6 SE 11 13 6 7 1015.8 1015.7 0.6
03/03:00am 17.5 17.2 14.4 82 1.8 SE 9 15 5 8 1015.7 1015.6 0.6
03/02:30am 17.7 16.6 14.2 80 2.0 SE 13 19 7 10 1015.7 1015.6 0.6
03/02:00am 17.8 15.5 14.7 82 1.8 SSE 20 26 11 14 1015.2 1015.1 0.6
03/01:30am 18.1 16.4 14.6 80 2.0 SSE 17 22 9 12 1015.7 1015.6 0.6
03/01:00am 17.2 16.4 13.9 81 1.9 SE 11 17 6 9 1015.5 1015.4 0.6
03/12:30am 17.3 15.6 13.6 79 2.1 SE 15 20 8 11 1015.7 1015.6 0.6
03/12:00am 17.2 15.8 13.3 78 2.2 SE 13 17 7 9 1015.9 1015.8 0.6
 
Date/Time
CDT
Temp
°C
App
Temp
°C
Dew
Point
Rel
Hum
%
Delta-T
°C
Wind Press
QNH
hPa
Press
MSL
hPa
Rain
since 9 am
mm
Dir
 
Spd
km/h
Gust
km/h
Spd
kts
Gust
kts
02/11:30pm 17.4 15.5 12.9 75 2.5 SE 15 20 8 11 1016.2 1016.1 0.6
02/11:00pm 17.6 16.1 13.1 75 2.5 SE 13 17 7 9 1016.3 1016.2 0.6
02/10:30pm 17.5 14.5 12.6 73 2.7 SE 20 28 11 15 1016.1 1016.0 0.6
02/10:00pm 17.4 14.3 13.5 78 2.2 SSE 22 32 12 17 1016.0 1015.9 0.6
02/09:30pm 17.8 14.4 14.7 82 1.8 SSE 26 33 14 18 1015.9 1015.8 0.6
02/09:00pm 18.0 15.0 15.8 87 1.3 SSE 26 33 14 18 1015.8 1015.7 0.4
02/08:30pm 17.9 13.7 15.7 87 1.3 SSE 32 41 17 22 1015.5 1015.4 0.4
02/08:00pm 17.8 14.3 15.6 87 1.3 SSE 28 35 15 19 1015.5 1015.4 0.4
02/07:30pm 18.0 15.0 15.8 87 1.3 SSE 26 32 14 17 1015.4 1015.3 0.4
02/07:00pm 18.4 15.6 16.4 88 1.2 S 26 33 14 18 1015.5 1015.4 0.0
02/06:30pm 18.8 15.7 16.6 87 1.3 S 28 35 15 19 1014.6 1014.5 0.0
02/06:00pm 19.1 16.6 16.1 83 1.8 S 24 30 13 16 1014.5 1014.4 0.0
02/05:30pm 19.9 17.4 16.2 79 2.2 S 24 32 13 17 1014.1 1014.0 0.0
02/05:00pm 20.1 17.1 14.9 72 3.1 SSW 24 30 13 16 1014.0 1013.9 0.0
02/04:30pm 20.7 17.2 15.5 72 3.1 SSW 28 35 15 19 1013.9 1013.8 0.0
02/04:00pm 22.6 18.5 12.8 54 5.6 SSW 26 32 14 17 1013.4 1013.3 0.0
02/03:30pm 22.9 19.5 13.7 56 5.4 S 24 32 13 17 1013.2 1013.1 0.0
02/03:00pm 21.2 18.1 14.6 66 3.9 S 24 33 13 18 1013.4 1013.3 0.0
02/02:30pm 20.4 16.6 15.8 75 2.7 SSW 30 43 16 23 1014.0 1013.9 0.0
02/02:00pm 21.9 18.6 15.0 65 4.1 SSW 26 35 14 19 1013.8 1013.7 0.0
02/01:30pm 22.1 19.0 14.5 62 4.5 SSW 24 28 13 15 1013.5 1013.4 0.0
02/01:00pm 23.3 21.1 14.8 59 5.0 SW 20 26 11 14 1013.6 1013.5 0.0
02/12:30pm 25.5 23.7 10.9 40 8.2 SE 11 17 6 9 1013.8 1013.7 0.0
02/12:00pm 23.1 21.3 13.3 54 5.7 SSW 15 19 8 10 1013.7 1013.6 0.0
02/11:30am 22.6 22.0 12.3 52 5.8 SSE 7 11 4 6 1014.0 1013.9 0.0
02/11:00am 22.4 21.4 10.9 48 6.4 SW 7 11 4 6 1014.6 1014.5 0.0
02/10:30am 22.4 21.9 10.9 48 6.4 E 4 11 2 6 1014.3 1014.2 0.0
02/10:00am 20.9 19.5 11.0 53 5.4 ENE 9 13 5 7 1014.0 1013.9 0.0
02/09:30am 19.7 17.6 11.2 58 4.7 ENE 13 17 7 9 1013.4 1013.3 0.0
02/09:00am 17.9 15.0 11.0 64 3.7 ENE 17 22 9 12 1013.0 1012.9 0.0
02/08:30am 16.9 14.8 11.2 69 3.1 E 13 19 7 10 1012.9 1012.8 0.0
02/08:00am 15.9 14.6 11.1 73 2.6 E 9 13 5 7 1013.1 1013.0 0.0
02/07:30am 15.6 14.2 11.0 74 2.5 ENE 9 15 5 8 1013.1 1013.0 0.0
02/07:00am 15.6 13.1 11.0 74 2.5 E 15 20 8 11 1012.7 1012.6 0.0
02/06:30am 15.1 12.6 10.9 76 2.2 E 15 19 8 10 1012.6 1012.5 0.0
02/06:00am 14.7 11.8 10.9 78 2.0 E 17 22 9 12 1012.6 1012.5 0.0
02/05:30am 15.1 12.9 10.9 76 2.2 ESE 13 17 7 9 1012.8 1012.7 0.0
02/05:00am 14.7 12.9 10.7 77 2.1 ESE 11 13 6 7 1012.9 1012.8 0.0
02/04:30am 14.5 13.6 10.5 77 2.1 ESE 6 7 3 4 1013.3 1013.2 0.0
02/04:00am 14.5 13.4 10.5 77 2.1 ESE 7 9 4 5 1013.3 1013.2 0.0
02/03:30am 14.3 12.8 10.5 78 2.0 ESE 9 11 5 6 1013.3 1013.2 0.0
02/03:00am 14.2 12.3 10.4 78 2.0 ESE 11 13 6 7 1013.3 1013.2 0.0
02/02:30am 15.6 13.8 11.0 74 2.5 SSE 11 13 6 7 1013.8 1013.7 0.0
02/02:00am 16.2 14.6 11.6 74 2.5 SSE 11 15 6 8 1013.9 1013.8 0.0
02/01:30am 15.2 14.6 12.3 83 1.6 SSE 7 11 4 6 1014.1 1014.0 0.0
02/01:00am 14.1 14.1 11.1 82 1.6 NW 2 6 1 3 1014.2 1014.1 0.0
02/12:30am 14.1 14.1 11.3 83 1.5 SSW 2 7 1 4 1014.0 1013.9 0.0
02/12:00am 15.5 14.9 12.3 81 1.7 SSE 7 13 4 7 1014.5 1014.4 0.0
 
Date/Time
CDT
Temp
°C
App
Temp
°C
Dew
Point
Rel
Hum
%
Delta-T
°C
Wind Press
QNH
hPa
Press
MSL
hPa
Rain
since 9 am
mm
Dir
 
Spd
km/h
Gust
km/h
Spd
kts
Gust
kts
01/11:30pm 16.6 14.6 12.8 78 2.1 SSE 15 19 8 10 1014.6 1014.5 0.0

Other Formats:

Comma delimited format used in spreadsheet applications
http://www.bom.gov.au/fwo/IDS60801/IDS60801.94653.axf

JavaScript Object Notation format (JSON) in row-major order
http://www.bom.gov.au/fwo/IDS60801/IDS60801.94653.json